Eships Dana — ZDJT6 — position and weather

sailwx.info

Track history (hours):
 
Tides and Currents Weather Stations Pressure Air Temp Water Temp Dewpoint Dewpoint Depression Visibility Wind Speed Wind Dir Waves Ship Positions

Eships Dana

Last reported at 2017-Aug-21 09:28 UTC. Time now 2017-Aug-22 05:18 UTC.
Position N 58°44' W 004°11'.

Length 116 m; draft 7.4 m.

Type: Ship (hazmat cat A). MMSI: 236566000.

Date/timePositionNaut miles runAvg speedWind from/ knotsBaromVisibWave heightAir tempDewpointWater temp
2017-Aug-21 09:28N 58°44' W 004°11'813.5
2017-Aug-21 08:54N 58°44' W 003°56'513.4
2017-Aug-21 08:30N 58°43' W 003°46'612.8
2017-Aug-21 08:00N 58°43' W 003°34'612.2
2017-Aug-21 07:30N 58°43' W 003°22'510.6
2017-Aug-21 07:00N 58°44' W 003°12'4 7.9
2017-Aug-21 06:30N 58°43' W 003°04'4 8.6
2017-Aug-21 06:00N 58°40' W 002°58'612.7
2017-Aug-21 05:31N 58°35' W 002°50'714.6
2017-Aug-21 05:01N 58°30' W 002°40'4814.7
2017-Aug-21 01:44N 57°55' W 001°36'313.8
2017-Aug-21 01:30N 57°53' W 001°32'1013.4
2017-Aug-21 00:48N 57°46' W 001°21'12413.8
2017-Aug-20 15:49N 55°42' W 001°04'714.0
2017-Aug-20 15:18N 55°35' W 001°03'414.0
2017-Aug-20 14:59N 55°31' W 001°04'813.8
2017-Aug-20 14:26N 55°23' W 001°03'613.6
2017-Aug-20 14:00N 55°17' W 001°04'713.6
2017-Aug-20 13:30N 55°11' W 001°05'713.5
2017-Aug-20 13:00N 55°04' W 001°01'613.0
2017-Aug-20 12:30N 54°58' W 001°02'713.7
2017-Aug-20 12:01N 54°51' W 001°05'612.2
2017-Aug-20 11:30N 54°45' W 001°06'3 6.0
2017-Aug-20 11:00N 54°42' W 001°06'2 0.1
2017-Aug-19 10:15N 54°40' W 001°07'310.5
2017-Aug-19 10:00N 54°43' W 001°05'5 9.7
2017-Aug-19 09:30N 54°47' W 001°09'2 2.8
2017-Aug-19 08:55N 54°47' W 001°12'0 0.0
2017-Aug-19 08:25N 54°47' W 001°11'0 0.0
2017-Aug-19 07:58N 54°47' W 001°12'0 0.1
2017-Aug-19 07:25N 54°47' W 001°12'0 0.0
2017-Aug-19 06:58N 54°47' W 001°12'0 0.0
2017-Aug-19 06:28N 54°48' W 001°12'0 0.1
2017-Aug-19 05:58N 54°48' W 001°12'0 0.0
2017-Aug-19 05:28N 54°48' W 001°12'0 0.1
2017-Aug-19 04:58N 54°47' W 001°12'0 0.1
2017-Aug-19 04:28N 54°47' W 001°12'0 0.0
2017-Aug-19 03:58N 54°47' W 001°12'0 0.0
2017-Aug-19 03:28N 54°47' W 001°12'0 0.0
2017-Aug-19 02:58N 54°47' W 001°12'0 0.0
2017-Aug-19 02:28N 54°47' W 001°12'0 0.0
2017-Aug-19 01:58N 54°47' W 001°12'0 0.0
2017-Aug-19 01:28N 54°47' W 001°12'0 0.1
2017-Aug-19 00:58N 54°48' W 001°12'0 0.0
2017-Aug-19 00:19N 54°48' W 001°12'0 0.0
2017-Aug-18 23:52N 54°48' W 001°12'0 0.0
2017-Aug-18 23:19N 54°48' W 001°12'0 0.0
2017-Aug-18 22:49N 54°48' W 001°12'0 0.0
2017-Aug-18 22:22N 54°48' W 001°12'0 0.0
2017-Aug-18 21:52N 54°48' W 001°12'0 0.0
2017-Aug-18 21:22N 54°48' W 001°12'0 0.0
2017-Aug-18 20:49N 54°48' W 001°12'0 0.0
2017-Aug-18 20:25N 54°48' W 001°12'0 0.0
2017-Aug-18 19:55N 54°48' W 001°12'0 0.0
2017-Aug-18 19:25N 54°48' W 001°12'0 0.0
2017-Aug-18 18:55N 54°48' W 001°12'0 0.0
2017-Aug-18 18:25N 54°48' W 001°12'0 0.0
2017-Aug-18 17:55N 54°48' W 001°12'0 0.0
2017-Aug-18 17:28N 54°48' W 001°12'0 0.0
2017-Aug-18 16:58N 54°48' W 001°12'0 0.1
2017-Aug-18 16:28N 54°47' W 001°12'0 0.1
2017-Aug-18 15:58N 54°47' W 001°12'0 0.0
2017-Aug-18 15:28N 54°47' W 001°12'0 0.0
2017-Aug-18 14:58N 54°47' W 001°12'0 0.1
2017-Aug-18 14:28N 54°47' W 001°12'0 0.1
2017-Aug-18 13:30N 54°47' W 001°12'2 3.6
2017-Aug-18 13:00N 54°46' W 001°10'5 9.9
2017-Aug-18 12:30N 54°41' W 001°08'2 0.1
2017-Aug-17 22:41N 54°40' W 001°08'211.3
2017-Aug-17 22:31N 54°41' W 001°05'5 9.8
2017-Aug-17 22:00N 54°40' W 000°57'3 5.8
2017-Aug-17 21:30N 54°40' W 000°52'1211.6
2017-Aug-17 20:27N 54°36' W 000°32'612.6
2017-Aug-17 20:00N 54°34' W 000°23'611.1
2017-Aug-17 19:31N 54°33' W 000°13'611.4
2017-Aug-17 19:00N 54°31' W 000°04'611.5
2017-Aug-17 18:31N 54°29' E 000°05'611.8
2017-Aug-17 18:01N 54°27' E 000°15'611.8
2017-Aug-17 17:31N 54°25' E 000°24'611.8
2017-Aug-17 17:00N 54°22' E 000°33'611.6
2017-Aug-17 16:30N 54°19' E 000°41'14210.6
2017-Aug-17 03:05N 52°16' E 002°42'111.9
2017-Aug-17 03:00N 52°15' E 002°42'811.8
2017-Aug-17 02:20N 52°07' E 002°41'511.9
2017-Aug-17 01:57N 52°03' E 002°37'511.9
2017-Aug-17 01:30N 51°58' E 002°36'612.2
2017-Aug-17 01:00N 51°55' E 002°45'612.0
2017-Aug-17 00:30N 51°50' E 002°40'612.7
2017-Aug-17 00:01N 51°44' E 002°34'612.7
2017-Aug-16 23:30N 51°39' E 002°28'613.0
2017-Aug-16 23:01N 51°34' E 002°21'713.2
2017-Aug-16 22:30N 51°30' E 002°13'713.5
2017-Aug-16 22:01N 51°25' E 002°06'713.1
2017-Aug-16 21:30N 51°18' E 002°08'713.4
2017-Aug-16 21:00N 51°13' E 002°02'713.9
2017-Aug-16 20:30N 51°10' E 001°52'714.2
2017-Aug-16 20:00N 51°05' E 001°44'714.7
2017-Aug-16 19:30N 50°60' E 001°36'815.0
2017-Aug-16 19:00N 50°54' E 001°28'815.1
2017-Aug-16 18:30N 50°47' E 001°24'713.4
2017-Aug-16 18:01N 50°41' E 001°19'713.7
2017-Aug-16 17:30N 50°36' E 001°11'713.7
2017-Aug-16 17:00N 50°32' E 001°03'713.3
2017-Aug-16 16:30N 50°29' E 000°53'813.8
2017-Aug-16 15:54N 50°26' E 000°41'1114.2
2017-Aug-16 15:08N 50°23' E 000°25'214.4
2017-Aug-16 15:00N 50°22' E 000°22'714.6
2017-Aug-16 14:30N 50°20' E 000°11'814.4
2017-Aug-16 13:57N 50°18' W 000°01'614.2
2017-Aug-16 13:30N 50°17' W 000°11'713.9
2017-Aug-16 13:00N 50°15' W 000°21'913.7
2017-Aug-16 12:22N 50°13' W 000°35'1013.3
2017-Aug-16 11:39N 50°11' W 000°49'1112.5
2017-Aug-16 10:46N 50°08' W 001°06'311.9
2017-Aug-16 10:30N 50°08' W 001°11'611.6
2017-Aug-16 10:00N 50°06' W 001°19'611.2
2017-Aug-16 09:31N 50°05' W 001°28'510.7
2017-Aug-16 09:01N 50°03' W 001°36'510.4
2017-Aug-16 08:31N 50°02' W 001°43'510.1
2017-Aug-16 08:01N 50°00' W 001°51'510.1
2017-Aug-16 07:30N 49°59' W 001°58'710.2
2017-Aug-16 06:48N 49°57' W 002°09'1711.3
2017-Aug-16 05:20N 49°53' W 002°34'612.2
2017-Aug-16 04:52N 49°51' W 002°43'512.5
2017-Aug-16 04:30N 49°50' W 002°50'1012.9
2017-Aug-16 03:43N 49°49' W 003°05'312.8
2017-Aug-16 03:30N 49°48' W 003°09'613.0
2017-Aug-16 03:00N 49°48' W 003°19'612.8
2017-Aug-16 02:30N 49°50' W 003°29'713.0
2017-Aug-16 02:00N 49°50' W 003°39'713.1
2017-Aug-16 01:30N 49°51' W 003°49'713.1
2017-Aug-16 01:00N 49°53' W 003°59'713.1
2017-Aug-16 00:29N 49°54' W 004°09'613.2
2017-Aug-16 00:00N 49°55' W 004°19'713.2
2017-Aug-15 23:28N 49°56' W 004°30'613.2
2017-Aug-15 23:00N 49°57' W 004°39'713.1
2017-Aug-15 22:30N 49°57' W 004°50'613.1
2017-Aug-15 22:00N 49°57' W 004°60'510.5
2017-Aug-15 21:30N 49°55' W 005°07'2 2.8
2017-Aug-15 20:43N 49°57' W 005°06'4 9.1
2017-Aug-15 20:16N 49°59' W 005°01'0 0.4
2017-Aug-15 19:53N 49°59' W 005°01'0 0.0
2017-Aug-15 17:50N 49°59' W 005°01'0 0.0
2017-Aug-15 17:29N 49°59' W 005°01'0 0.0
2017-Aug-15 16:20N 49°59' W 005°01'0 0.0
2017-Aug-15 15:20N 49°59' W 005°01'0 0.0
2017-Aug-15 14:59N 49°59' W 005°01'0 0.0
2017-Aug-15 13:50N 49°59' W 005°01'0 0.0
2017-Aug-15 13:20N 49°59' W 005°01'0 0.0
2017-Aug-15 12:56N 49°59' W 005°01'0 0.0
2017-Aug-15 12:23N 49°59' W 005°01'0 0.0
2017-Aug-15 11:56N 49°59' W 005°01'0 0.0
2017-Aug-15 11:08N 49°59' W 005°01'0 0.0
2017-Aug-15 08:32N 49°59' W 005°01'0 0.0
2017-Aug-15 08:14N 49°59' W 005°01'0 0.0
2017-Aug-15 07:20N 49°59' W 005°01'0 0.0
2017-Aug-15 06:50N 49°59' W 005°01'0 0.1
2017-Aug-15 06:23N 49°59' W 005°01'0 0.1
2017-Aug-15 05:56N 49°59' W 005°01'0 0.1
2017-Aug-15 05:26N 49°59' W 005°01'0 0.1
2017-Aug-15 04:47N 49°59' W 005°01'0 0.0
2017-Aug-15 04:29N 49°59' W 005°01'0 0.0
2017-Aug-15 03:59N 49°59' W 005°01'0 0.0
2017-Aug-15 03:29N 49°59' W 005°01'0 0.0
2017-Aug-15 02:53N 49°59' W 005°01'0 0.0
2017-Aug-15 02:29N 49°59' W 005°01'0 0.0
2017-Aug-15 01:44N 49°59' W 005°01'0 0.0
2017-Aug-15 01:20N 49°59' W 005°01'0 0.0
2017-Aug-15 00:59N 49°59' W 005°01'0 0.1
2017-Aug-15 00:20N 49°59' W 005°01'0 0.0
2017-Aug-14 23:59N 49°59' W 005°01'0 0.0
2017-Aug-14 23:20N 49°59' W 005°01'0 0.0
2017-Aug-14 22:59N 49°59' W 005°01'0 0.0
2017-Aug-14 22:29N 49°59' W 005°01'0 0.0
2017-Aug-14 21:50N 49°59' W 005°01'0 0.0
2017-Aug-14 20:50N 49°59' W 005°01'0 0.0
2017-Aug-14 20:29N 49°59' W 005°01'0 0.0
2017-Aug-14 19:08N 49°59' W 005°01'0 0.1
2017-Aug-14 18:47N 49°59' W 005°01'0 0.0
2017-Aug-14 18:26N 49°59' W 005°01'0 0.0
2017-Aug-14 17:50N 49°59' W 005°01'0 0.0
2017-Aug-14 17:20N 49°59' W 005°01'0 0.1
2017-Aug-14 16:50N 49°59' W 005°01'0 0.2
2017-Aug-14 16:26N 49°59' W 005°01'0 0.1
2017-Aug-14 15:59N 49°59' W 005°01'0 0.0
2017-Aug-14 15:29N 49°59' W 005°01'0 0.0
2017-Aug-14 14:47N 49°59' W 005°01'0 0.1
2017-Aug-14 14:20N 49°59' W 005°01'0 0.0
2017-Aug-14 13:38N 49°59' W 005°01'0 0.1
2017-Aug-14 13:29N 49°59' W 005°01'0 0.1
2017-Aug-14 12:53N 49°59' W 005°01'0 0.0
2017-Aug-14 12:26N 49°59' W 005°01'0 0.0
2017-Aug-14 11:11N 49°59' W 005°01'0 0.0
2017-Aug-14 10:38N 49°59' W 005°01'0 0.0
2017-Aug-14 10:26N 49°59' W 005°01'0 0.0
2017-Aug-14 09:38N 49°59' W 005°01'0 0.1
2017-Aug-14 09:26N 49°59' W 005°01'0 0.0
2017-Aug-14 08:59N 49°59' W 005°01'0 0.0
2017-Aug-14 08:23N 49°59' W 005°01'0 0.0
2017-Aug-14 07:56N 49°59' W 005°01'0 0.0
2017-Aug-14 07:29N 49°59' W 005°01'0 0.0
2017-Aug-14 06:59N 49°59' W 005°01'0 0.0
2017-Aug-14 06:29N 49°59' W 005°01'0 0.0
2017-Aug-14 05:59N 49°59' W 005°01'0 0.0
2017-Aug-14 05:26N 49°59' W 005°01'0 0.1
2017-Aug-14 04:41N 49°59' W 005°01'0 0.1
2017-Aug-14 04:17N 49°59' W 005°01'0 0.0
2017-Aug-14 03:50N 49°59' W 005°01'0 0.0
2017-Aug-14 03:26N 49°59' W 005°01'0 0.0
2017-Aug-14 02:47N 49°59' W 005°01'0 0.0
2017-Aug-14 02:26N 49°59' W 005°01'0 0.1
2017-Aug-14 01:50N 49°59' W 005°01'0 0.1
2017-Aug-14 01:26N 49°59' W 005°01'0 0.1
2017-Aug-14 00:56N 49°59' W 005°01'0 0.0
2017-Aug-14 00:29N 49°59' W 005°01'0 0.0
2017-Aug-13 23:53N 49°59' W 005°01'0 0.1
2017-Aug-13 23:17N 49°59' W 005°01'0 0.0
2017-Aug-13 22:59N 49°59' W 005°01'0 0.0
2017-Aug-13 22:29N 49°59' W 005°01'0 0.0
2017-Aug-13 21:56N 49°59' W 005°01'0 0.0
2017-Aug-13 21:29N 49°59' W 005°01'0 0.0
2017-Aug-13 19:50N 49°59' W 005°01'0 0.0
2017-Aug-13 19:29N 49°59' W 005°01'0 0.0
2017-Aug-13 18:56N 49°59' W 005°01'0 0.0
2017-Aug-13 18:29N 49°59' W 005°01'0 0.0
2017-Aug-13 17:17N 49°59' W 005°01'0 0.2
2017-Aug-13 16:44N 49°59' W 005°01'0 0.1
2017-Aug-13 16:29N 49°59' W 005°01'0 0.0
2017-Aug-13 15:53N 49°59' W 005°01'0 0.0
2017-Aug-13 15:23N 49°59' W 005°01'0 0.0
2017-Aug-13 14:53N 49°59' W 005°01'0 0.1
2017-Aug-13 14:29N 49°59' W 005°01'0 0.0
2017-Aug-13 13:56N 49°59' W 005°01'0 0.0
2017-Aug-13 13:20N 49°59' W 005°01'0 0.0
2017-Aug-13 12:56N 49°59' W 005°01'0 0.1
2017-Aug-13 12:23N 49°59' W 005°01'0 0.1
2017-Aug-13 11:38N 49°59' W 005°01'0 0.0
2017-Aug-13 11:14N 49°59' W 005°01'0 0.0
2017-Aug-13 05:38N 49°59' W 005°01'0 0.0
2017-Aug-13 05:20N 49°59' W 005°01'0 0.1
2017-Aug-13 04:56N 49°59' W 005°01'0 0.1
2017-Aug-13 04:29N 49°59' W 005°01'0 0.1
2017-Aug-13 03:56N 49°59' W 005°01'0 0.0
2017-Aug-13 03:29N 49°59' W 005°01'0 0.0
2017-Aug-13 02:59N 49°59' W 005°01'0 0.0
2017-Aug-13 02:29N 49°59' W 005°01'0 0.0
2017-Aug-13 01:59N 49°59' W 005°01'0 0.0
2017-Aug-13 01:26N 49°59' W 005°01'0 0.0
2017-Aug-13 00:59N 49°59' W 005°01'0 0.1
2017-Aug-13 00:23N 49°59' W 005°01'0 0.1
2017-Aug-12 23:50N 49°59' W 005°01'0 0.1
2017-Aug-12 23:29N 49°59' W 005°01'0 0.1
2017-Aug-12 22:56N 49°59' W 005°01'0 0.0
2017-Aug-12 22:26N 49°59' W 005°01'0 0.0
2017-Aug-12 21:47N 49°59' W 005°01'0 0.0
2017-Aug-12 21:29N 49°59' W 005°01'0 0.0
2017-Aug-12 20:38N 49°59' W 005°01'0 0.0
2017-Aug-12 20:26N 49°59' W 005°01'0 0.0
2017-Aug-12 19:56N 49°59' W 005°01'0 0.0
2017-Aug-12 19:20N 49°59' W 005°01'0 0.0
2017-Aug-12 18:59N 49°59' W 005°01'0 0.0
2017-Aug-12 17:59N 49°59' W 005°01'0 0.0
2017-Aug-12 17:23N 49°59' W 005°01'0 0.1
2017-Aug-12 16:56N 49°59' W 005°01'0 0.1
2017-Aug-12 16:29N 49°59' W 005°01'0 0.0
2017-Aug-12 15:56N 49°59' W 005°01'0 0.1
2017-Aug-12 15:29N 49°59' W 005°01'0 0.1
2017-Aug-12 14:53N 49°59' W 005°01'0 0.0
2017-Aug-12 14:26N 49°59' W 005°01'0 0.0
2017-Aug-12 13:53N 49°59' W 005°01'0 0.1
2017-Aug-12 13:29N 49°59' W 005°01'0 0.0
2017-Aug-12 12:59N 49°59' W 005°01'0 0.0
2017-Aug-12 12:26N 49°59' W 005°01'0 0.0
2017-Aug-12 11:59N 49°59' W 005°01'0 0.1
2017-Aug-12 11:29N 49°59' W 005°01'0 0.1
2017-Aug-12 10:53N 49°59' W 005°01'0 0.0
2017-Aug-12 10:29N 49°59' W 005°01'0 0.0
2017-Aug-12 09:11N 49°59' W 005°01'0 0.1
2017-Aug-12 08:53N 49°59' W 005°01'0 0.0
2017-Aug-12 08:26N 49°59' W 005°01'0 0.0
2017-Aug-12 07:41N 49°59' W 005°01'0 0.0
2017-Aug-12 07:26N 49°59' W 005°01'0 0.0
2017-Aug-12 06:59N 49°59' W 005°01'0 0.0
2017-Aug-12 06:29N 49°59' W 005°01'0 0.0
2017-Aug-12 05:56N 49°59' W 005°01'0 0.1
2017-Aug-12 05:29N 49°59' W 005°01'0 0.0
2017-Aug-12 04:56N 49°59' W 005°01'0 0.0
2017-Aug-12 04:26N 49°59' W 005°01'0 0.1
2017-Aug-12 03:56N 49°59' W 005°01'0 0.2
2017-Aug-12 03:29N 49°59' W 005°01'0 0.0
2017-Aug-12 02:56N 49°59' W 005°01'0 0.0
2017-Aug-12 02:23N 49°59' W 005°01'0 0.0
2017-Aug-12 01:59N 49°59' W 005°01'0 0.0
2017-Aug-12 01:23N 49°59' W 005°01'0 0.0
2017-Aug-12 00:59N 49°59' W 005°01'0 0.0
2017-Aug-12 00:29N 49°59' W 005°01'0 0.3
2017-Aug-11 23:56N 49°59' W 005°01'0 0.1
2017-Aug-11 23:26N 49°59' W 005°01'0 0.0
2017-Aug-11 22:56N 49°59' W 005°01'0 0.0
2017-Aug-11 22:26N 49°59' W 005°01'0 0.0
2017-Aug-11 21:50N 49°59' W 005°01'0 0.0
2017-Aug-11 21:20N 49°59' W 005°01'0 0.0
2017-Aug-11 20:50N 49°59' W 005°01'0 0.0
2017-Aug-11 20:29N 49°59' W 005°01'0 0.0
2017-Aug-11 19:59N 49°59' W 005°01'0 0.0
2017-Aug-11 19:20N 49°59' W 005°01'0 0.0
2017-Aug-11 18:44N 49°59' W 005°01'0 0.0
2017-Aug-11 18:08N 49°59' W 005°01'0 0.1
2017-Aug-11 17:59N 49°59' W 005°01'0 0.0
2017-Aug-11 16:32N 49°59' W 005°01'0 0.0
2017-Aug-11 16:05N 49°59' W 005°01'0 0.1
2017-Aug-11 14:20N 49°59' W 005°01'0 0.0
2017-Aug-11 13:29N 49°59' W 005°01'0 0.0
2017-Aug-11 12:53N 49°59' W 005°01'0 0.1
2017-Aug-11 12:20N 49°59' W 005°01'0 0.2
2017-Aug-11 11:50N 49°59' W 005°01'0 0.2
2017-Aug-11 11:26N 49°59' W 005°01'0 0.0
2017-Aug-11 10:41N 49°59' W 005°01'0 0.1
2017-Aug-11 10:20N 49°59' W 005°01'  
Track history (hours):
 
Tides and Currents Weather Stations Pressure Air Temp Water Temp Dewpoint Dewpoint Depression Visibility Wind Speed Wind Dir Waves Ship Positions

Eships Dana

Last reported at 2017-Aug-21 09:28 UTC. Time now 2017-Aug-22 05:18 UTC.
Position N 58°44' W 004°11'.

Length 116 m; draft 7.4 m.

Type: Ship (hazmat cat A). MMSI: 236566000.

Date/timePositionNaut miles runAvg speedWind from/ knotsBaromVisibWave heightAir tempDewpointWater temp
2017-Aug-21 09:28N 58°44' W 004°11'813.5
2017-Aug-21 08:54N 58°44' W 003°56'513.4
2017-Aug-21 08:30N 58°43' W 003°46'612.8
2017-Aug-21 08:00N 58°43' W 003°34'612.2
2017-Aug-21 07:30N 58°43' W 003°22'510.6
2017-Aug-21 07:00N 58°44' W 003°12'4 7.9
2017-Aug-21 06:30N 58°43' W 003°04'4 8.6
2017-Aug-21 06:00N 58°40' W 002°58'612.7
2017-Aug-21 05:31N 58°35' W 002°50'714.6
2017-Aug-21 05:01N 58°30' W 002°40'4814.7
2017-Aug-21 01:44N 57°55' W 001°36'313.8
2017-Aug-21 01:30N 57°53' W 001°32'1013.4
2017-Aug-21 00:48N 57°46' W 001°21'12413.8
2017-Aug-20 15:49N 55°42' W 001°04'714.0
2017-Aug-20 15:18N 55°35' W 001°03'414.0
2017-Aug-20 14:59N 55°31' W 001°04'813.8
2017-Aug-20 14:26N 55°23' W 001°03'613.6
2017-Aug-20 14:00N 55°17' W 001°04'713.6
2017-Aug-20 13:30N 55°11' W 001°05'713.5
2017-Aug-20 13:00N 55°04' W 001°01'613.0
2017-Aug-20 12:30N 54°58' W 001°02'713.7
2017-Aug-20 12:01N 54°51' W 001°05'612.2
2017-Aug-20 11:30N 54°45' W 001°06'3 6.0
2017-Aug-20 11:00N 54°42' W 001°06'2 0.1
2017-Aug-19 10:15N 54°40' W 001°07'310.5
2017-Aug-19 10:00N 54°43' W 001°05'5 9.7
2017-Aug-19 09:30N 54°47' W 001°09'2 2.8
2017-Aug-19 08:55N 54°47' W 001°12'0 0.0
2017-Aug-19 08:25N 54°47' W 001°11'0 0.0
2017-Aug-19 07:58N 54°47' W 001°12'0 0.1
2017-Aug-19 07:25N 54°47' W 001°12'0 0.0
2017-Aug-19 06:58N 54°47' W 001°12'0 0.0
2017-Aug-19 06:28N 54°48' W 001°12'0 0.1
2017-Aug-19 05:58N 54°48' W 001°12'0 0.0
2017-Aug-19 05:28N 54°48' W 001°12'0 0.1
2017-Aug-19 04:58N 54°47' W 001°12'0 0.1
2017-Aug-19 04:28N 54°47' W 001°12'0 0.0
2017-Aug-19 03:58N 54°47' W 001°12'0 0.0
2017-Aug-19 03:28N 54°47' W 001°12'0 0.0
2017-Aug-19 02:58N 54°47' W 001°12'0 0.0
2017-Aug-19 02:28N 54°47' W 001°12'0 0.0
2017-Aug-19 01:58N 54°47' W 001°12'0 0.0
2017-Aug-19 01:28N 54°47' W 001°12'0 0.1
2017-Aug-19 00:58N 54°48' W 001°12'0 0.0
2017-Aug-19 00:19N 54°48' W 001°12'0 0.0
2017-Aug-18 23:52N 54°48' W 001°12'0 0.0
2017-Aug-18 23:19N 54°48' W 001°12'0 0.0
2017-Aug-18 22:49N 54°48' W 001°12'0 0.0
2017-Aug-18 22:22N 54°48' W 001°12'0 0.0
2017-Aug-18 21:52N 54°48' W 001°12'0 0.0
2017-Aug-18 21:22N 54°48' W 001°12'0 0.0
2017-Aug-18 20:49N 54°48' W 001°12'0 0.0
2017-Aug-18 20:25N 54°48' W 001°12'0 0.0
2017-Aug-18 19:55N 54°48' W 001°12'0 0.0
2017-Aug-18 19:25N 54°48' W 001°12'0 0.0
2017-Aug-18 18:55N 54°48' W 001°12'0 0.0
2017-Aug-18 18:25N 54°48' W 001°12'0 0.0
2017-Aug-18 17:55N 54°48' W 001°12'0 0.0
2017-Aug-18 17:28N 54°48' W 001°12'0 0.0
2017-Aug-18 16:58N 54°48' W 001°12'0 0.1
2017-Aug-18 16:28N 54°47' W 001°12'0 0.1
2017-Aug-18 15:58N 54°47' W 001°12'0 0.0
2017-Aug-18 15:28N 54°47' W 001°12'0 0.0
2017-Aug-18 14:58N 54°47' W 001°12'0 0.1
2017-Aug-18 14:28N 54°47' W 001°12'0 0.1
2017-Aug-18 13:30N 54°47' W 001°12'2 3.6
2017-Aug-18 13:00N 54°46' W 001°10'5 9.9
2017-Aug-18 12:30N 54°41' W 001°08'2 0.1
2017-Aug-17 22:41N 54°40' W 001°08'211.3
2017-Aug-17 22:31N 54°41' W 001°05'5 9.8
2017-Aug-17 22:00N 54°40' W 000°57'3 5.8
2017-Aug-17 21:30N 54°40' W 000°52'1211.6
2017-Aug-17 20:27N 54°36' W 000°32'612.6
2017-Aug-17 20:00N 54°34' W 000°23'611.1
2017-Aug-17 19:31N 54°33' W 000°13'611.4
2017-Aug-17 19:00N 54°31' W 000°04'611.5
2017-Aug-17 18:31N 54°29' E 000°05'611.8
2017-Aug-17 18:01N 54°27' E 000°15'611.8
2017-Aug-17 17:31N 54°25' E 000°24'611.8
2017-Aug-17 17:00N 54°22' E 000°33'611.6
2017-Aug-17 16:30N 54°19' E 000°41'14210.6
2017-Aug-17 03:05N 52°16' E 002°42'111.9
2017-Aug-17 03:00N 52°15' E 002°42'811.8
2017-Aug-17 02:20N 52°07' E 002°41'511.9
2017-Aug-17 01:57N 52°03' E 002°37'511.9
2017-Aug-17 01:30N 51°58' E 002°36'612.2
2017-Aug-17 01:00N 51°55' E 002°45'612.0
2017-Aug-17 00:30N 51°50' E 002°40'612.7
2017-Aug-17 00:01N 51°44' E 002°34'612.7
2017-Aug-16 23:30N 51°39' E 002°28'613.0
2017-Aug-16 23:01N 51°34' E 002°21'713.2
2017-Aug-16 22:30N 51°30' E 002°13'713.5
2017-Aug-16 22:01N 51°25' E 002°06'713.1
2017-Aug-16 21:30N 51°18' E 002°08'713.4
2017-Aug-16 21:00N 51°13' E 002°02'713.9
2017-Aug-16 20:30N 51°10' E 001°52'714.2
2017-Aug-16 20:00N 51°05' E 001°44'714.7
2017-Aug-16 19:30N 50°60' E 001°36'815.0
2017-Aug-16 19:00N 50°54' E 001°28'815.1
2017-Aug-16 18:30N 50°47' E 001°24'713.4
2017-Aug-16 18:01N 50°41' E 001°19'713.7
2017-Aug-16 17:30N 50°36' E 001°11'713.7
2017-Aug-16 17:00N 50°32' E 001°03'713.3
2017-Aug-16 16:30N 50°29' E 000°53'813.8
2017-Aug-16 15:54N 50°26' E 000°41'1114.2
2017-Aug-16 15:08N 50°23' E 000°25'214.4
2017-Aug-16 15:00N 50°22' E 000°22'714.6
2017-Aug-16 14:30N 50°20' E 000°11'814.4
2017-Aug-16 13:57N 50°18' W 000°01'614.2
2017-Aug-16 13:30N 50°17' W 000°11'713.9
2017-Aug-16 13:00N 50°15' W 000°21'913.7
2017-Aug-16 12:22N 50°13' W 000°35'1013.3
2017-Aug-16 11:39N 50°11' W 000°49'1112.5
2017-Aug-16 10:46N 50°08' W 001°06'311.9
2017-Aug-16 10:30N 50°08' W 001°11'611.6
2017-Aug-16 10:00N 50°06' W 001°19'611.2
2017-Aug-16 09:31N 50°05' W 001°28'510.7
2017-Aug-16 09:01N 50°03' W 001°36'510.4
2017-Aug-16 08:31N 50°02' W 001°43'510.1
2017-Aug-16 08:01N 50°00' W 001°51'510.1
2017-Aug-16 07:30N 49°59' W 001°58'710.2
2017-Aug-16 06:48N 49°57' W 002°09'1711.3
2017-Aug-16 05:20N 49°53' W 002°34'612.2
2017-Aug-16 04:52N 49°51' W 002°43'512.5
2017-Aug-16 04:30N 49°50' W 002°50'1012.9
2017-Aug-16 03:43N 49°49' W 003°05'312.8
2017-Aug-16 03:30N 49°48' W 003°09'613.0
2017-Aug-16 03:00N 49°48' W 003°19'612.8
2017-Aug-16 02:30N 49°50' W 003°29'713.0
2017-Aug-16 02:00N 49°50' W 003°39'713.1
2017-Aug-16 01:30N 49°51' W 003°49'713.1
2017-Aug-16 01:00N 49°53' W 003°59'713.1
2017-Aug-16 00:29N 49°54' W 004°09'613.2
2017-Aug-16 00:00N 49°55' W 004°19'713.2
2017-Aug-15 23:28N 49°56' W 004°30'613.2
2017-Aug-15 23:00N 49°57' W 004°39'713.1
2017-Aug-15 22:30N 49°57' W 004°50'613.1
2017-Aug-15 22:00N 49°57' W 004°60'510.5
2017-Aug-15 21:30N 49°55' W 005°07'2 2.8
2017-Aug-15 20:43N 49°57' W 005°06'4 9.1
2017-Aug-15 20:16N 49°59' W 005°01'0 0.4
2017-Aug-15 19:53N 49°59' W 005°01'0 0.0
2017-Aug-15 17:50N 49°59' W 005°01'0 0.0
2017-Aug-15 17:29N 49°59' W 005°01'0 0.0
2017-Aug-15 16:20N 49°59' W 005°01'0 0.0
2017-Aug-15 15:20N 49°59' W 005°01'0 0.0
2017-Aug-15 14:59N 49°59' W 005°01'0 0.0
2017-Aug-15 13:50N 49°59' W 005°01'0 0.0
2017-Aug-15 13:20N 49°59' W 005°01'0 0.0
2017-Aug-15 12:56N 49°59' W 005°01'0 0.0
2017-Aug-15 12:23N 49°59' W 005°01'0 0.0
2017-Aug-15 11:56N 49°59' W 005°01'0 0.0
2017-Aug-15 11:08N 49°59' W 005°01'0 0.0
2017-Aug-15 08:32N 49°59' W 005°01'0 0.0
2017-Aug-15 08:14N 49°59' W 005°01'0 0.0
2017-Aug-15 07:20N 49°59' W 005°01'0 0.0
2017-Aug-15 06:50N 49°59' W 005°01'0 0.1
2017-Aug-15 06:23N 49°59' W 005°01'0 0.1
2017-Aug-15 05:56N 49°59' W 005°01'0 0.1
2017-Aug-15 05:26N 49°59' W 005°01'0 0.1
2017-Aug-15 04:47N 49°59' W 005°01'0 0.0
2017-Aug-15 04:29N 49°59' W 005°01'0 0.0
2017-Aug-15 03:59N 49°59' W 005°01'0 0.0
2017-Aug-15 03:29N 49°59' W 005°01'0 0.0
2017-Aug-15 02:53N 49°59' W 005°01'0 0.0
2017-Aug-15 02:29N 49°59' W 005°01'0 0.0
2017-Aug-15 01:44N 49°59' W 005°01'0 0.0
2017-Aug-15 01:20N 49°59' W 005°01'0 0.0
2017-Aug-15 00:59N 49°59' W 005°01'0 0.1
2017-Aug-15 00:20N 49°59' W 005°01'0 0.0
2017-Aug-14 23:59N 49°59' W 005°01'0 0.0
2017-Aug-14 23:20N 49°59' W 005°01'0 0.0
2017-Aug-14 22:59N 49°59' W 005°01'0 0.0
2017-Aug-14 22:29N 49°59' W 005°01'0 0.0
2017-Aug-14 21:50N 49°59' W 005°01'0 0.0
2017-Aug-14 20:50N 49°59' W 005°01'0 0.0
2017-Aug-14 20:29N 49°59' W 005°01'0 0.0
2017-Aug-14 19:08N 49°59' W 005°01'0 0.1
2017-Aug-14 18:47N 49°59' W 005°01'0 0.0
2017-Aug-14 18:26N 49°59' W 005°01'0 0.0
2017-Aug-14 17:50N 49°59' W 005°01'0 0.0
2017-Aug-14 17:20N 49°59' W 005°01'0 0.1
2017-Aug-14 16:50N 49°59' W 005°01'0 0.2
2017-Aug-14 16:26N 49°59' W 005°01'0 0.1
2017-Aug-14 15:59N 49°59' W 005°01'0 0.0
2017-Aug-14 15:29N 49°59' W 005°01'0 0.0
2017-Aug-14 14:47N 49°59' W 005°01'0 0.1
2017-Aug-14 14:20N 49°59' W 005°01'0 0.0
2017-Aug-14 13:38N 49°59' W 005°01'0 0.1
2017-Aug-14 13:29N 49°59' W 005°01'0 0.1
2017-Aug-14 12:53N 49°59' W 005°01'0 0.0
2017-Aug-14 12:26N 49°59' W 005°01'0 0.0
2017-Aug-14 11:11N 49°59' W 005°01'0 0.0
2017-Aug-14 10:38N 49°59' W 005°01'0 0.0
2017-Aug-14 10:26N 49°59' W 005°01'0 0.0
2017-Aug-14 09:38N 49°59' W 005°01'0 0.1
2017-Aug-14 09:26N 49°59' W 005°01'0 0.0
2017-Aug-14 08:59N 49°59' W 005°01'0 0.0
2017-Aug-14 08:23N 49°59' W 005°01'0 0.0
2017-Aug-14 07:56N 49°59' W 005°01'0 0.0
2017-Aug-14 07:29N 49°59' W 005°01'0 0.0
2017-Aug-14 06:59N 49°59' W 005°01'0 0.0
2017-Aug-14 06:29N 49°59' W 005°01'0 0.0
2017-Aug-14 05:59N 49°59' W 005°01'0 0.0
2017-Aug-14 05:26N 49°59' W 005°01'0 0.1
2017-Aug-14 04:41N 49°59' W 005°01'0 0.1
2017-Aug-14 04:17N 49°59' W 005°01'0 0.0
2017-Aug-14 03:50N 49°59' W 005°01'0 0.0
2017-Aug-14 03:26N 49°59' W 005°01'0 0.0
2017-Aug-14 02:47N 49°59' W 005°01'0 0.0
2017-Aug-14 02:26N 49°59' W 005°01'0 0.1
2017-Aug-14 01:50N 49°59' W 005°01'0 0.1
2017-Aug-14 01:26N 49°59' W 005°01'0 0.1
2017-Aug-14 00:56N 49°59' W 005°01'0 0.0
2017-Aug-14 00:29N 49°59' W 005°01'0 0.0
2017-Aug-13 23:53N 49°59' W 005°01'0 0.1
2017-Aug-13 23:17N 49°59' W 005°01'0 0.0
2017-Aug-13 22:59N 49°59' W 005°01'0 0.0
2017-Aug-13 22:29N 49°59' W 005°01'0 0.0
2017-Aug-13 21:56N 49°59' W 005°01'0 0.0
2017-Aug-13 21:29N 49°59' W 005°01'0 0.0
2017-Aug-13 19:50N 49°59' W 005°01'0 0.0
2017-Aug-13 19:29N 49°59' W 005°01'0 0.0
2017-Aug-13 18:56N 49°59' W 005°01'0 0.0
2017-Aug-13 18:29N 49°59' W 005°01'0 0.0
2017-Aug-13 17:17N 49°59' W 005°01'0 0.2
2017-Aug-13 16:44N 49°59' W 005°01'0 0.1
2017-Aug-13 16:29N 49°59' W 005°01'0 0.0
2017-Aug-13 15:53N 49°59' W 005°01'0 0.0
2017-Aug-13 15:23N 49°59' W 005°01'0 0.0
2017-Aug-13 14:53N 49°59' W 005°01'0 0.1
2017-Aug-13 14:29N 49°59' W 005°01'0 0.0
2017-Aug-13 13:56N 49°59' W 005°01'0 0.0
2017-Aug-13 13:20N 49°59' W 005°01'0 0.0
2017-Aug-13 12:56N 49°59' W 005°01'0 0.1
2017-Aug-13 12:23N 49°59' W 005°01'0 0.1
2017-Aug-13 11:38N 49°59' W 005°01'0 0.0
2017-Aug-13 11:14N 49°59' W 005°01'0 0.0
2017-Aug-13 05:38N 49°59' W 005°01'0 0.0
2017-Aug-13 05:20N 49°59' W 005°01'0 0.1
2017-Aug-13 04:56N 49°59' W 005°01'0 0.1
2017-Aug-13 04:29N 49°59' W 005°01'0 0.1
2017-Aug-13 03:56N 49°59' W 005°01'0 0.0
2017-Aug-13 03:29N 49°59' W 005°01'0 0.0
2017-Aug-13 02:59N 49°59' W 005°01'0 0.0
2017-Aug-13 02:29N 49°59' W 005°01'0 0.0
2017-Aug-13 01:59N 49°59' W 005°01'0 0.0
2017-Aug-13 01:26N 49°59' W 005°01'0 0.0
2017-Aug-13 00:59N 49°59' W 005°01'0 0.1
2017-Aug-13 00:23N 49°59' W 005°01'0 0.1
2017-Aug-12 23:50N 49°59' W 005°01'0 0.1
2017-Aug-12 23:29N 49°59' W 005°01'0 0.1
2017-Aug-12 22:56N 49°59' W 005°01'0 0.0
2017-Aug-12 22:26N 49°59' W 005°01'0 0.0
2017-Aug-12 21:47N 49°59' W 005°01'0 0.0
2017-Aug-12 21:29N 49°59' W 005°01'0 0.0
2017-Aug-12 20:38N 49°59' W 005°01'0 0.0
2017-Aug-12 20:26N 49°59' W 005°01'0 0.0
2017-Aug-12 19:56N 49°59' W 005°01'0 0.0
2017-Aug-12 19:20N 49°59' W 005°01'0 0.0
2017-Aug-12 18:59N 49°59' W 005°01'0 0.0
2017-Aug-12 17:59N 49°59' W 005°01'0 0.0
2017-Aug-12 17:23N 49°59' W 005°01'0 0.1
2017-Aug-12 16:56N 49°59' W 005°01'0 0.1
2017-Aug-12 16:29N 49°59' W 005°01'0 0.0
2017-Aug-12 15:56N 49°59' W 005°01'0 0.1
2017-Aug-12 15:29N 49°59' W 005°01'0 0.1
2017-Aug-12 14:53N 49°59' W 005°01'0 0.0
2017-Aug-12 14:26N 49°59' W 005°01'0 0.0
2017-Aug-12 13:53N 49°59' W 005°01'0 0.1
2017-Aug-12 13:29N 49°59' W 005°01'0 0.0
2017-Aug-12 12:59N 49°59' W 005°01'0 0.0
2017-Aug-12 12:26N 49°59' W 005°01'0 0.0
2017-Aug-12 11:59N 49°59' W 005°01'0 0.1
2017-Aug-12 11:29N 49°59' W 005°01'0 0.1
2017-Aug-12 10:53N 49°59' W 005°01'0 0.0
2017-Aug-12 10:29N 49°59' W 005°01'0 0.0
2017-Aug-12 09:11N 49°59' W 005°01'0 0.1
2017-Aug-12 08:53N 49°59' W 005°01'0 0.0
2017-Aug-12 08:26N 49°59' W 005°01'0 0.0
2017-Aug-12 07:41N 49°59' W 005°01'0 0.0
2017-Aug-12 07:26N 49°59' W 005°01'0 0.0
2017-Aug-12 06:59N 49°59' W 005°01'0 0.0
2017-Aug-12 06:29N 49°59' W 005°01'0 0.0
2017-Aug-12 05:56N 49°59' W 005°01'0 0.1
2017-Aug-12 05:29N 49°59' W 005°01'0 0.0
2017-Aug-12 04:56N 49°59' W 005°01'0 0.0
2017-Aug-12 04:26N 49°59' W 005°01'0 0.1
2017-Aug-12 03:56N 49°59' W 005°01'0 0.2
2017-Aug-12 03:29N 49°59' W 005°01'0 0.0
2017-Aug-12 02:56N 49°59' W 005°01'0 0.0
2017-Aug-12 02:23N 49°59' W 005°01'0 0.0
2017-Aug-12 01:59N 49°59' W 005°01'0 0.0
2017-Aug-12 01:23N 49°59' W 005°01'0 0.0
2017-Aug-12 00:59N 49°59' W 005°01'0 0.0
2017-Aug-12 00:29N 49°59' W 005°01'0 0.3
2017-Aug-11 23:56N 49°59' W 005°01'0 0.1
2017-Aug-11 23:26N 49°59' W 005°01'0 0.0
2017-Aug-11 22:56N 49°59' W 005°01'0 0.0
2017-Aug-11 22:26N 49°59' W 005°01'0 0.0
2017-Aug-11 21:50N 49°59' W 005°01'0 0.0
2017-Aug-11 21:20N 49°59' W 005°01'0 0.0
2017-Aug-11 20:50N 49°59' W 005°01'0 0.0
2017-Aug-11 20:29N 49°59' W 005°01'0 0.0
2017-Aug-11 19:59N 49°59' W 005°01'0 0.0
2017-Aug-11 19:20N 49°59' W 005°01'0 0.0
2017-Aug-11 18:44N 49°59' W 005°01'0 0.0
2017-Aug-11 18:08N 49°59' W 005°01'0 0.1
2017-Aug-11 17:59N 49°59' W 005°01'0 0.0
2017-Aug-11 16:32N 49°59' W 005°01'0 0.0
2017-Aug-11 16:05N 49°59' W 005°01'0 0.1
2017-Aug-11 14:20N 49°59' W 005°01'0 0.0
2017-Aug-11 13:29N 49°59' W 005°01'0 0.0
2017-Aug-11 12:53N 49°59' W 005°01'0 0.1
2017-Aug-11 12:20N 49°59' W 005°01'0 0.2
2017-Aug-11 11:50N 49°59' W 005°01'0 0.2
2017-Aug-11 11:26N 49°59' W 005°01'0 0.0
2017-Aug-11 10:41N 49°59' W 005°01'0 0.1
2017-Aug-11 10:20N 49°59' W 005°01'  

Dump ship's entire track history